Time;durP1;ratioP1;P1;durP2;ratioP2;P2;SDS_P1;SDS_P2;PMS_P1;PMS_P2;Temp;Humidity;BMP_temperature;BMP_pressure;BME280_temperature;BME280_humidity;BME280_pressure;Samples;Min_cycle;Max_cycle;Signal;HPM_P1;HPM_P2
2023/10/06 00:00:26;;;;;;;6.83;6.33;;;;;;;;;;4150363;28;20498;-69
2023/10/06 00:02:30;;;;;;;6.60;6.18;;;;;;;;;;4150032;28;20373;-68
2023/10/06 00:04:38;;;;;;;6.95;6.70;;;;;;;;;;4150165;28;20034;-68
2023/10/06 00:06:41;;;;;;;7.63;7.18;;;;;;;;;;4150217;28;20626;-68
2023/10/06 00:08:47;;;;;;;7.15;6.85;;;;;;;;;;4150425;28;20041;-68
2023/10/06 00:10:54;;;;;;;6.97;6.72;;;;;;;;;;4149978;28;20740;-69
2023/10/06 00:12:59;;;;;;;6.60;6.15;;;;;;;;;;4150376;28;20042;-68
2023/10/06 00:15:07;;;;;;;7.15;6.75;;;;;;;;;;4150214;28;20382;-68
2023/10/06 00:17:22;;;;;;;6.07;5.57;;;;;;;;;;4150143;28;20741;-68
2023/10/06 00:19:26;;;;;;;6.68;6.38;;;;;;;;;;4150060;28;20309;-69
2023/10/06 00:21:29;;;;;;;7.15;6.55;;;;;;;;;;4149939;28;20042;-70
2023/10/06 00:23:31;;;;;;;5.72;5.53;;;;;;;;;;4149880;28;20092;-69
2023/10/06 00:25:35;;;;;;;8.10;7.60;;;;;;;;;;4149821;28;20494;-69
2023/10/06 00:27:38;;;;;;;7.13;6.90;;;;;;;;;;4150021;28;20068;-70
2023/10/06 00:29:43;;;;;;;;;;;;;;;;;;4150246;28;20038;-68
2023/10/06 00:31:48;;;;;;;7.40;6.75;;;;;;;;;;4149840;28;19929;-69
2023/10/06 00:33:50;;;;;;;8.70;8.00;;;;;;;;;;4149788;28;20048;-69
2023/10/06 00:35:52;;;;;;;8.25;7.65;;;;;;;;;;4149586;28;20044;-69
2023/10/06 00:37:57;;;;;;;7.90;7.60;;;;;;;;;;4150006;28;20116;-69
2023/10/06 00:39:59;;;;;;;9.05;8.30;;;;;;;;;;4149347;28;20311;-69
2023/10/06 00:42:04;;;;;;;8.15;7.85;;;;;;;;;;4149785;28;20080;-69
2023/10/06 00:44:06;;;;;;;7.28;6.97;;;;;;;;;;4156710;28;20048;-69
2023/10/06 00:46:08;;;;;;;10.23;9.45;;;;;;;;;;4164389;28;20037;-68
2023/10/06 00:48:14;;;;;;;8.53;8.00;;;;;;;;;;4149829;28;20050;-69
2023/10/06 00:50:22;;;;;;;9.38;8.68;;;;;;;;;;4149498;28;20289;-68
2023/10/06 00:52:24;;;;;;;7.88;7.47;;;;;;;;;;4149643;28;20046;-69
2023/10/06 00:54:26;;;;;;;8.38;8.05;;;;;;;;;;4149704;28;20056;-68
2023/10/06 00:56:28;;;;;;;8.07;7.75;;;;;;;;;;4149620;28;20045;-68
2023/10/06 00:58:34;;;;;;;8.10;7.47;;;;;;;;;;4149472;28;20049;-68
2023/10/06 01:00:37;;;;;;;7.60;7.40;;;;;;;;;;4149525;28;20126;-66
2023/10/06 01:02:39;;;;;;;8.93;8.50;;;;;;;;;;4148294;28;20057;-65
2023/10/06 01:04:52;;;;;;;7.32;6.95;;;;;;;;;;4149096;28;20042;-65
2023/10/06 01:06:54;;;;;;;7.32;7.03;;;;;;;;;;4149085;28;20040;-65
2023/10/06 01:09:05;;;;;;;7.60;7.07;;;;;;;;;;4149462;28;20062;-65
2023/10/06 01:11:17;;;;;;;8.40;7.43;;;;;;;;;;4149143;28;20037;-65
2023/10/06 01:13:19;;;;;;;8.18;7.78;;;;;;;;;;4149184;28;20045;-65
2023/10/06 01:15:24;;;;;;;;;;;;;;;;;;4133185;28;20065;-65
2023/10/06 01:17:25;;;;;;;7.25;6.93;;;;;;;;;;4132852;28;19930;-65
2023/10/06 01:19:27;;;;;;;7.60;7.30;;;;;;;;;;4132921;28;20096;-65
2023/10/06 01:21:29;;;;;;;7.95;7.35;;;;;;;;;;4132727;28;20475;-65
2023/10/06 01:23:33;;;;;;;8.10;7.55;;;;;;;;;;4132834;28;20046;-65
2023/10/06 01:25:35;;;;;;;8.18;7.88;;;;;;;;;;4132720;28;20041;-67
2023/10/06 01:27:36;;;;;;;7.32;6.97;;;;;;;;;;4132790;28;20093;-65
2023/10/06 01:29:40;;;;;;;6.13;5.83;;;;;;;;;;4132744;28;20384;-65
2023/10/06 01:31:43;;;;;;;6.80;6.50;;;;;;;;;;4132698;28;20046;-65
2023/10/06 01:33:45;;;;;;;7.10;6.50;;;;;;;;;;4149082;28;20054;-64
2023/10/06 01:35:47;;;;;;;7.80;7.28;;;;;;;;;;4149027;28;20046;-65
2023/10/06 01:37:59;;;;;;;7.32;6.72;;;;;;;;;;4148767;28;20056;-65
2023/10/06 01:40:07;;;;;;;5.38;5.07;;;;;;;;;;4148627;28;20068;-65
2023/10/06 01:42:17;;;;;;;7.45;7.13;;;;;;;;;;4148466;28;20045;-65
2023/10/06 01:44:18;;;;;;;7.07;6.63;;;;;;;;;;4156566;28;20039;-66
2023/10/06 01:46:21;;;;;;;13.43;8.15;;;;;;;;;;4145140;28;20038;-65
2023/10/06 01:48:22;;;;;;;8.65;8.07;;;;;;;;;;4132425;28;20042;-65
2023/10/06 01:50:26;;;;;;;8.85;8.20;;;;;;;;;;4132367;28;20495;-65
2023/10/06 01:52:28;;;;;;;9.00;8.55;;;;;;;;;;4132472;28;20610;-65
2023/10/06 01:54:34;;;;;;;8.60;8.23;;;;;;;;;;4132369;28;20038;-65
2023/10/06 01:56:36;;;;;;;9.18;8.70;;;;;;;;;;4132831;28;20343;-65
2023/10/06 01:58:38;;;;;;;8.82;8.27;;;;;;;;;;4132523;28;20038;-65
2023/10/06 02:00:39;;;;;;;8.77;8.02;;;;;;;;;;4132090;28;20046;-64
2023/10/06 02:02:41;;;;;;;8.50;7.73;;;;;;;;;;4133495;28;20506;-65
2023/10/06 02:04:45;;;;;;;9.18;8.52;;;;;;;;;;4148517;28;20084;-65
2023/10/06 02:06:51;;;;;;;7.95;7.65;;;;;;;;;;4148293;28;20041;-65
2023/10/06 02:08:54;;;;;;;8.02;7.45;;;;;;;;;;4148397;28;20066;-64
2023/10/06 02:10:56;;;;;;;8.05;7.43;;;;;;;;;;4159420;28;20045;-65
2023/10/06 02:12:58;;;;;;;7.13;6.93;;;;;;;;;;4164558;28;20037;-65
2023/10/06 02:15:00;;;;;;;8.40;7.78;;;;;;;;;;4163642;28;20037;-65
2023/10/06 02:17:05;;;;;;;9.50;8.77;;;;;;;;;;4164551;28;20095;-64
2023/10/06 02:19:10;;;;;;;7.70;7.40;;;;;;;;;;4164778;28;20043;-65
2023/10/06 02:21:14;;;;;;;8.10;7.80;;;;;;;;;;4164417;28;20049;-65
2023/10/06 02:23:16;;;;;;;9.27;8.88;;;;;;;;;;4164363;28;20544;-65
2023/10/06 02:25:20;;;;;;;9.17;8.87;;;;;;;;;;4164405;28;20617;-65
2023/10/06 02:27:22;;;;;;;8.80;8.35;;;;;;;;;;4164349;28;20276;-65
2023/10/06 02:29:24;;;;;;;9.43;8.83;;;;;;;;;;4152915;28;20513;-64
2023/10/06 02:31:27;;;;;;;8.05;7.65;;;;;;;;;;4148034;28;20292;-64
2023/10/06 02:33:29;;;;;;;8.45;7.72;;;;;;;;;;4147881;28;20069;-65
2023/10/06 02:35:34;;;;;;;8.75;8.02;;;;;;;;;;4147735;28;20046;-65
2023/10/06 02:37:36;;;;;;;8.65;8.35;;;;;;;;;;4147897;28;20430;-65
2023/10/06 02:39:38;;;;;;;8.93;8.15;;;;;;;;;;4147847;28;20041;-64
2023/10/06 02:41:40;;;;;;;;;;;;;;;;;;4157173;28;20045;-65
2023/10/06 02:43:42;;;;;;;8.70;8.10;;;;;;;;;;4164087;28;19932;-64
2023/10/06 02:45:44;;;;;;;9.60;9.02;;;;;;;;;;4164086;28;20414;-64
2023/10/06 02:47:46;;;;;;;8.88;8.52;;;;;;;;;;4149291;28;20100;-65
2023/10/06 02:49:48;;;;;;;9.13;8.63;;;;;;;;;;4147804;28;20038;-64
2023/10/06 02:51:54;;;;;;;8.63;8.23;;;;;;;;;;4147879;28;20128;-65
2023/10/06 02:54:09;;;;;;;8.57;8.07;;;;;;;;;;4147961;28;20056;-65
2023/10/06 02:56:16;;;;;;;8.63;8.13;;;;;;;;;;4147647;28;20046;-65
2023/10/06 02:58:27;;;;;;;9.20;8.48;;;;;;;;;;4147757;28;20072;-65
2023/10/06 03:00:29;;;;;;;9.10;8.70;;;;;;;;;;4147606;28;20116;-64
2023/10/06 03:02:34;;;;;;;8.97;8.47;;;;;;;;;;4147514;28;20077;-64
2023/10/06 03:04:36;;;;;;;8.05;7.75;;;;;;;;;;4147819;28;20296;-65
2023/10/06 03:06:38;;;;;;;9.82;9.10;;;;;;;;;;4147488;28;20124;-64
2023/10/06 03:08:42;;;;;;;8.40;8.10;;;;;;;;;;4147541;28;20046;-65
2023/10/06 03:10:43;;;;;;;8.52;7.80;;;;;;;;;;4147404;28;20280;-65
2023/10/06 03:12:45;;;;;;;7.70;7.32;;;;;;;;;;4147561;28;20037;-65
2023/10/06 03:14:47;;;;;;;8.07;7.40;;;;;;;;;;4147521;28;20117;-64
2023/10/06 03:16:51;;;;;;;8.05;7.85;;;;;;;;;;4147448;28;20288;-64
2023/10/06 03:18:54;;;;;;;8.15;7.85;;;;;;;;;;4147586;28;20049;-64
2023/10/06 03:21:13;;;;;;;9.77;9.02;;;;;;;;;;4147475;28;20050;-65
2023/10/06 03:23:26;;;;;;;9.13;8.63;;;;;;;;;;4147531;28;20076;-65
2023/10/06 03:25:28;;;;;;;9.32;8.77;;;;;;;;;;4147937;28;20136;-64
2023/10/06 03:27:31;;;;;;;8.73;8.15;;;;;;;;;;4150845;28;20045;-65
2023/10/06 03:31:56;;;;;;;8.50;7.97;;;;;;;;;;4150774;28;20049;-64
2023/10/06 03:33:58;;;;;;;9.02;8.63;;;;;;;;;;4150996;28;20045;-66
2023/10/06 03:36:01;;;;;;;8.40;8.10;;;;;;;;;;4150629;28;20046;-65
2023/10/06 03:38:13;;;;;;;8.63;8.18;;;;;;;;;;4150512;28;20303;-64
2023/10/06 03:40:25;;;;;;;9.10;8.57;;;;;;;;;;4150458;28;20125;-65
2023/10/06 03:42:27;;;;;;;8.90;8.30;;;;;;;;;;4165955;28;20107;-65
2023/10/06 03:44:30;;;;;;;7.35;7.00;;;;;;;;;;4167054;28;20307;-65
2023/10/06 03:46:38;;;;;;;8.57;8.00;;;;;;;;;;4162295;28;20441;-64
2023/10/06 03:48:40;;;;;;;7.88;7.63;;;;;;;;;;4150848;28;20387;-64
2023/10/06 03:50:43;;;;;;;11.47;7.63;;;;;;;;;;4150374;28;20077;-64
2023/10/06 03:52:49;;;;;;;8.70;8.10;;;;;;;;;;4150714;28;20463;-65
2023/10/06 03:54:52;;;;;;;9.68;8.88;;;;;;;;;;4150360;28;20046;-65
2023/10/06 03:56:54;;;;;;;9.20;8.50;;;;;;;;;;4149049;28;20520;-65
2023/10/06 03:58:56;;;;;;;9.00;8.70;;;;;;;;;;4150350;28;20081;-65
2023/10/06 04:00:58;;;;;;;9.38;8.38;;;;;;;;;;4150344;28;20292;-64
2023/10/06 04:03:03;;;;;;;9.80;9.15;;;;;;;;;;4150021;28;20065;-64
2023/10/06 04:05:06;;;;;;;8.65;8.25;;;;;;;;;;4150345;28;20034;-64
2023/10/06 04:07:08;;;;;;;9.23;8.40;;;;;;;;;;4150252;28;20384;-65
2023/10/06 04:09:11;;;;;;;9.87;8.97;;;;;;;;;;4150240;28;20517;-65
2023/10/06 04:11:16;;;;;;;9.00;8.55;;;;;;;;;;4150122;28;20126;-65
2023/10/06 04:13:18;;;;;;;10.25;9.77;;;;;;;;;;4149133;28;20041;-65
2023/10/06 04:15:19;;;;;;;9.90;9.25;;;;;;;;;;4143818;28;20073;-65
2023/10/06 04:17:21;;;;;;;9.93;9.13;;;;;;;;;;4150005;28;20053;-65
2023/10/06 04:19:23;;;;;;;10.45;9.85;;;;;;;;;;4150159;28;20045;-64
2023/10/06 04:21:25;;;;;;;9.07;8.57;;;;;;;;;;4150085;28;20213;-65
2023/10/06 04:23:26;;;;;;;9.10;8.60;;;;;;;;;;4165162;28;20086;-64
2023/10/06 04:25:28;;;;;;;11.10;10.10;;;;;;;;;;4149795;28;20042;-65
2023/10/06 04:27:32;;;;;;;10.60;9.82;;;;;;;;;;4149872;28;20030;-65
2023/10/06 04:29:35;;;;;;;10.90;9.90;;;;;;;;;;4149768;28;20038;-64
2023/10/06 04:31:37;;;;;;;10.25;9.57;;;;;;;;;;4149726;28;20498;-64
2023/10/06 04:33:39;;;;;;;9.13;8.63;;;;;;;;;;4149775;28;20126;-64
2023/10/06 04:35:43;;;;;;;9.38;8.98;;;;;;;;;;4148637;28;20100;-65
2023/10/06 04:37:46;;;;;;;9.55;9.25;;;;;;;;;;4148934;28;20049;-64
2023/10/06 04:39:48;;;;;;;9.38;8.73;;;;;;;;;;4149500;28;20101;-64
2023/10/06 04:41:49;;;;;;;8.57;8.18;;;;;;;;;;4141652;28;20046;-64
2023/10/06 04:43:52;;;;;;;9.27;8.47;;;;;;;;;;4144275;28;20046;-65
2023/10/06 04:45:55;;;;;;;9.60;9.13;;;;;;;;;;4148078;28;20299;-65
2023/10/06 04:47:57;;;;;;;9.07;8.55;;;;;;;;;;4148126;28;20042;-65
2023/10/06 04:49:58;;;;;;;9.38;8.75;;;;;;;;;;4149648;28;20092;-65
2023/10/06 04:52:00;;;;;;;9.93;9.40;;;;;;;;;;4149552;28;20116;-64
2023/10/06 04:54:02;;;;;;;9.33;8.93;;;;;;;;;;4149540;28;20068;-64
2023/10/06 04:56:05;;;;;;;9.40;8.80;;;;;;;;;;4149495;28;20520;-64
2023/10/06 04:58:07;;;;;;;;;;;;;;;;;;4149861;28;20038;-65
2023/10/06 05:00:19;;;;;;;8.98;8.52;;;;;;;;;;4149370;28;19929;-64
2023/10/06 05:02:22;;;;;;;10.90;8.88;;;;;;;;;;4149107;28;20537;-65
2023/10/06 05:04:24;;;;;;;9.63;9.13;;;;;;;;;;4149221;28;20121;-65
2023/10/06 05:06:25;;;;;;;9.55;9.15;;;;;;;;;;4149367;28;20116;-64
2023/10/06 05:08:27;;;;;;;9.02;8.63;;;;;;;;;;4149370;28;20505;-64
2023/10/06 05:10:30;;;;;;;10.68;9.68;;;;;;;;;;4149282;28;20040;-64
2023/10/06 05:12:32;;;;;;;10.73;10.02;;;;;;;;;;4149230;28;20034;-64
2023/10/06 05:14:34;;;;;;;9.77;8.88;;;;;;;;;;4149102;28;20536;-64
2023/10/06 05:16:36;;;;;;;9.82;9.20;;;;;;;;;;4149202;28;20441;-66
2023/10/06 05:18:41;;;;;;;10.05;9.50;;;;;;;;;;4146137;28;20414;-65
2023/10/06 05:20:43;;;;;;;10.15;9.82;;;;;;;;;;4146441;28;20506;-64
2023/10/06 05:22:45;;;;;;;11.07;10.27;;;;;;;;;;4148989;28;20053;-63
2023/10/06 05:24:47;;;;;;;10.80;10.10;;;;;;;;;;4148934;28;20042;-63
2023/10/06 05:26:50;;;;;;;;;;;;;;;;;;4149461;28;20042;-62
2023/10/06 05:28:51;;;;;;;11.57;10.45;;;;;;;;;;4144655;28;19921;-63
2023/10/06 05:30:53;;;;;;;11.18;10.27;;;;;;;;;;4132599;28;20042;-64
2023/10/06 05:32:59;;;;;;;11.23;10.45;;;;;;;;;;4132815;28;20403;-63
2023/10/06 05:35:03;;;;;;;12.07;11.43;;;;;;;;;;4134962;28;20126;-63
2023/10/06 05:37:08;;;;;;;10.68;10.07;;;;;;;;;;4149355;28;20107;-71
2023/10/06 05:39:11;;;;;;;12.10;11.23;;;;;;;;;;4144043;28;20493;-70
2023/10/06 05:41:15;;;;;;;10.93;10.35;;;;;;;;;;4153326;28;20037;-70
2023/10/06 05:43:17;;;;;;;10.80;10.07;;;;;;;;;;4163543;28;20782;-71
2023/10/06 05:45:19;;;;;;;11.02;10.27;;;;;;;;;;4163557;28;20523;-70
2023/10/06 05:47:21;;;;;;;10.60;10.00;;;;;;;;;;4152072;28;20088;-70
2023/10/06 05:49:23;;;;;;;12.25;11.05;;;;;;;;;;4147176;28;20046;-71
2023/10/06 05:51:24;;;;;;;10.38;9.70;;;;;;;;;;4147048;28;20042;-71
2023/10/06 05:53:30;;;;;;;11.60;10.70;;;;;;;;;;4148007;28;20049;-70
2023/10/06 05:55:33;;;;;;;11.82;10.93;;;;;;;;;;4148520;28;20052;-70
2023/10/06 05:57:38;;;;;;;10.43;9.82;;;;;;;;;;4148713;28;20076;-71
2023/10/06 05:59:40;;;;;;;10.00;9.38;;;;;;;;;;4148488;28;20049;-71
2023/10/06 06:01:45;;;;;;;10.90;9.82;;;;;;;;;;4148094;28;20052;-71
2023/10/06 06:03:46;;;;;;;10.15;9.50;;;;;;;;;;4148510;28;20133;-71
2023/10/06 06:05:50;;;;;;;11.32;10.40;;;;;;;;;;4148270;28;20445;-70
2023/10/06 06:07:51;;;;;;;12.05;8.75;;;;;;;;;;4148329;28;20038;-71
2023/10/06 06:09:53;;;;;;;9.50;8.90;;;;;;;;;;4148344;28;20044;-71
2023/10/06 06:11:55;;;;;;;11.13;10.33;;;;;;;;;;4148469;28;20092;-71
2023/10/06 06:13:58;;;;;;;10.87;10.13;;;;;;;;;;4148156;28;20096;-70
2023/10/06 06:16:18;;;;;;;11.35;9.18;;;;;;;;;;4148280;28;20289;-71
2023/10/06 06:18:20;;;;;;;;;;;;;;;;;;4148659;28;20045;-71
2023/10/06 06:20:22;;;;;;;11.48;10.88;;;;;;;;;;4148110;28;20301;-70
2023/10/06 06:22:24;;;;;;;11.25;10.73;;;;;;;;;;4148232;28;20038;-71
2023/10/06 06:24:27;;;;;;;12.05;11.10;;;;;;;;;;4148134;28;20053;-71
2023/10/06 06:26:29;;;;;;;11.70;11.00;;;;;;;;;;4148116;28;20038;-70
2023/10/06 06:28:31;;;;;;;11.82;10.57;;;;;;;;;;4148091;28;20088;-70
2023/10/06 06:30:34;;;;;;;14.60;9.73;;;;;;;;;;4148067;28;20088;-71
2023/10/06 06:32:36;;;;;;;10.80;10.00;;;;;;;;;;4148110;28;20038;-69
2023/10/06 06:34:38;;;;;;;10.60;10.00;;;;;;;;;;4147947;28;20050;-71
2023/10/06 06:36:41;;;;;;;10.52;9.88;;;;;;;;;;4147842;28;20498;-71
2023/10/06 06:38:42;;;;;;;10.75;10.07;;;;;;;;;;4147741;28;20092;-71
2023/10/06 06:40:44;;;;;;;11.60;10.53;;;;;;;;;;4149051;28;20104;-71
2023/10/06 06:42:47;;;;;;;10.00;9.47;;;;;;;;;;4164293;28;20795;-70
2023/10/06 06:44:48;;;;;;;10.13;9.20;;;;;;;;;;4155278;28;20277;-71
2023/10/06 06:46:50;;;;;;;10.35;9.68;;;;;;;;;;4140621;28;20057;-71
2023/10/06 06:48:52;;;;;;;10.80;10.27;;;;;;;;;;4131665;28;20041;-71
2023/10/06 06:50:54;;;;;;;10.68;10.07;;;;;;;;;;4132238;28;20340;-70
2023/10/06 06:52:56;;;;;;;11.77;11.00;;;;;;;;;;4163111;28;20041;-71
2023/10/06 06:54:58;;;;;;;11.00;10.13;;;;;;;;;;4164279;28;20041;-71
2023/10/06 06:57:00;;;;;;;12.00;10.88;;;;;;;;;;4164016;28;20099;-71
2023/10/06 06:59:01;;;;;;;11.37;10.47;;;;;;;;;;4163986;28;20045;-71
2023/10/06 07:01:06;;;;;;;10.90;10.27;;;;;;;;;;4163769;28;20037;-71
2023/10/06 07:03:08;;;;;;;11.18;10.38;;;;;;;;;;4163764;28;20057;-71
2023/10/06 07:05:10;;;;;;;13.82;10.07;;;;;;;;;;4163831;28;20037;-70
2023/10/06 07:07:13;;;;;;;10.23;9.32;;;;;;;;;;4163995;28;20095;-71
2023/10/06 07:09:14;;;;;;;11.18;10.15;;;;;;;;;;4163764;28;20061;-71
2023/10/06 07:11:16;;;;;;;10.32;9.38;;;;;;;;;;4147572;28;20383;-71
2023/10/06 07:13:22;;;;;;;9.43;8.80;;;;;;;;;;4147730;28;20049;-71
2023/10/06 07:15:24;;;;;;;10.95;10.23;;;;;;;;;;4147504;28;20042;-71
2023/10/06 07:17:26;;;;;;;9.65;9.07;;;;;;;;;;4147806;28;20052;-71
2023/10/06 07:19:30;;;;;;;11.13;10.23;;;;;;;;;;4147552;28;20046;-71
2023/10/06 07:21:32;;;;;;;11.38;10.50;;;;;;;;;;4146635;28;20108;-70
2023/10/06 07:23:36;;;;;;;10.40;9.77;;;;;;;;;;4147588;28;20052;-70
2023/10/06 07:25:38;;;;;;;11.50;10.65;;;;;;;;;;4147358;28;20293;-71
2023/10/06 07:27:40;;;;;;;10.80;9.98;;;;;;;;;;4147335;28;20527;-71
2023/10/06 07:29:43;;;;;;;12.15;9.35;;;;;;;;;;4147430;28;20038;-71
2023/10/06 07:31:48;;;;;;;;;;;;;;;;;;4147848;28;20050;-71
2023/10/06 07:34:02;;;;;;;14.32;9.98;;;;;;;;;;4147454;28;19926;-70
2023/10/06 07:36:14;;;;;;;10.45;9.63;;;;;;;;;;4147301;28;20469;-71
2023/10/06 07:38:16;;;;;;;10.43;9.82;;;;;;;;;;4147357;28;20046;-69
2023/10/06 07:40:21;;;;;;;10.55;9.73;;;;;;;;;;4147082;28;20049;-71
2023/10/06 07:42:23;;;;;;;10.57;10.02;;;;;;;;;;4145087;28;20489;-71
2023/10/06 07:44:25;;;;;;;9.45;8.63;;;;;;;;;;4146949;28;20072;-70
2023/10/06 07:46:29;;;;;;;8.68;8.38;;;;;;;;;;4147187;28;20493;-71
2023/10/06 07:48:31;;;;;;;9.45;9.02;;;;;;;;;;4147176;28;20417;-71
2023/10/06 07:50:36;;;;;;;9.13;8.60;;;;;;;;;;4146911;28;20042;-71
2023/10/06 07:52:37;;;;;;;9.77;8.98;;;;;;;;;;4147299;28;20693;-71
2023/10/06 07:54:41;;;;;;;8.90;8.30;;;;;;;;;;4147323;28;20418;-71
2023/10/06 07:56:42;;;;;;;9.70;9.20;;;;;;;;;;4147246;28;20660;-71
2023/10/06 07:58:44;;;;;;;9.07;8.77;;;;;;;;;;4147297;28;20108;-70
2023/10/06 08:00:46;;;;;;;8.70;8.20;;;;;;;;;;4147030;28;20053;-70
2023/10/06 08:02:47;;;;;;;8.77;7.97;;;;;;;;;;4148938;28;20461;-71
2023/10/06 08:04:51;;;;;;;9.25;8.48;;;;;;;;;;4163524;28;20049;-69
2023/10/06 08:06:53;;;;;;;;;;;;;;;;;;4152125;28;20561;-70
2023/10/06 08:08:55;;;;;;;8.17;7.77;;;;;;;;;;4147291;28;19921;-71
2023/10/06 08:10:56;;;;;;;8.02;7.60;;;;;;;;;;4147045;28;20053;-69
2023/10/06 08:13:01;;;;;;;9.23;8.35;;;;;;;;;;4147351;28;20100;-70
2023/10/06 08:15:09;;;;;;;8.15;7.88;;;;;;;;;;4150444;28;20490;-70
2023/10/06 08:17:11;;;;;;;8.50;8.10;;;;;;;;;;4148900;28;20046;-70
2023/10/06 08:19:12;;;;;;;10.25;9.27;;;;;;;;;;4150057;28;20076;-70
2023/10/06 08:21:14;;;;;;;16.73;8.13;;;;;;;;;;4148767;28;20723;-70
2023/10/06 08:23:16;;;;;;;11.35;7.80;;;;;;;;;;4150075;28;20499;-71
2023/10/06 08:25:18;;;;;;;7.35;7.15;;;;;;;;;;4149906;28;20042;-70
2023/10/06 08:27:23;;;;;;;9.18;8.18;;;;;;;;;;4150022;28;20042;-70
2023/10/06 08:29:25;;;;;;;17.48;8.90;;;;;;;;;;4148847;28;20045;-70
2023/10/06 08:31:28;;;;;;;8.02;7.30;;;;;;;;;;4150160;28;20137;-70
2023/10/06 08:33:30;;;;;;;6.28;6.03;;;;;;;;;;4149841;28;20493;-70
2023/10/06 08:35:32;;;;;;;6.47;6.05;;;;;;;;;;4149846;28;20065;-70
2023/10/06 08:37:33;;;;;;;8.38;7.70;;;;;;;;;;4149615;28;20123;-70
2023/10/06 08:39:38;;;;;;;6.60;6.25;;;;;;;;;;4149556;28;20049;-70
2023/10/06 08:41:43;;;;;;;7.53;6.78;;;;;;;;;;4158770;28;20069;-70
2023/10/06 08:43:46;;;;;;;7.55;7.18;;;;;;;;;;4166313;28;20111;-70
2023/10/06 08:45:49;;;;;;;9.68;8.55;;;;;;;;;;4165666;28;20041;-70
2023/10/06 08:47:58;;;;;;;7.40;6.80;;;;;;;;;;4150421;28;20045;-70
2023/10/06 08:50:06;;;;;;;7.35;6.82;;;;;;;;;;4149621;28;20042;-69
2023/10/06 08:52:09;;;;;;;8.45;7.45;;;;;;;;;;4149675;28;20125;-69
2023/10/06 08:54:13;;;;;;;7.28;6.65;;;;;;;;;;4149548;28;20041;-70
2023/10/06 08:56:15;;;;;;;8.45;7.65;;;;;;;;;;4149517;28;20049;-70
2023/10/06 08:58:17;;;;;;;7.18;6.75;;;;;;;;;;4149612;28;20125;-70
2023/10/06 09:00:22;;;;;;;9.45;7.13;;;;;;;;;;4149475;28;20453;-70
2023/10/06 09:02:25;;;;;;;7.55;6.85;;;;;;;;;;4149191;28;20458;-70
2023/10/06 09:04:37;;;;;;;6.70;6.40;;;;;;;;;;4149408;28;20077;-70
2023/10/06 09:06:58;;;;;;;7.60;6.97;;;;;;;;;;4149224;28;20042;-69
2023/10/06 09:09:01;;;;;;;6.30;6.00;;;;;;;;;;4148103;28;20097;-70
2023/10/06 09:11:03;;;;;;;5.82;5.60;;;;;;;;;;4149399;28;20066;-70
2023/10/06 09:13:06;;;;;;;7.82;5.60;;;;;;;;;;4149312;28;20042;-69
2023/10/06 09:15:14;;;;;;;7.45;6.97;;;;;;;;;;4149251;28;20042;-69
2023/10/06 09:17:28;;;;;;;5.90;5.50;;;;;;;;;;4149204;28;20457;-69
2023/10/06 09:19:49;;;;;;;5.55;5.20;;;;;;;;;;4149429;28;20060;-69
2023/10/06 09:22:04;;;;;;;9.02;7.03;;;;;;;;;;4149054;28;20045;-69
2023/10/06 09:24:20;;;;;;;6.32;5.47;;;;;;;;;;4149021;28;20041;-70
2023/10/06 09:26:27;;;;;;;5.80;5.00;;;;;;;;;;4147845;28;20038;-69
2023/10/06 09:28:31;;;;;;;6.32;5.70;;;;;;;;;;4149025;28;20060;-70
2023/10/06 09:30:46;;;;;;;5.63;5.32;;;;;;;;;;4148918;28;20050;-70
2023/10/06 09:33:00;;;;;;;5.78;5.38;;;;;;;;;;4146534;28;20037;-69
2023/10/06 09:35:20;;;;;;;5.30;4.97;;;;;;;;;;4135100;28;20039;-69
2023/10/06 09:37:24;;;;;;;4.72;4.47;;;;;;;;;;4148899;28;20073;-70
2023/10/06 09:39:28;;;;;;;6.43;5.40;;;;;;;;;;4148663;28;20387;-69
2023/10/06 09:41:32;;;;;;;7.13;4.50;;;;;;;;;;4164442;28;20041;-70
2023/10/06 09:43:35;;;;;;;4.60;4.35;;;;;;;;;;4165023;28;20037;-70
2023/10/06 09:45:37;;;;;;;4.38;4.05;;;;;;;;;;4165031;28;20560;-69
2023/10/06 09:47:41;;;;;;;3.83;3.63;;;;;;;;;;4151368;28;20046;-69
2023/10/06 09:49:44;;;;;;;5.22;4.82;;;;;;;;;;4148615;28;20407;-69
2023/10/06 09:51:50;;;;;;;4.45;4.15;;;;;;;;;;4147558;28;20050;-69
2023/10/06 09:53:53;;;;;;;4.90;4.35;;;;;;;;;;4147413;28;20553;-70
2023/10/06 09:55:55;;;;;;;4.22;3.78;;;;;;;;;;4148582;28;20041;-70
2023/10/06 09:57:57;;;;;;;5.28;4.88;;;;;;;;;;4148604;28;20529;-70
2023/10/06 10:00:00;;;;;;;3.75;3.42;;;;;;;;;;4132328;28;20046;-70
2023/10/06 10:02:03;;;;;;;4.95;4.57;;;;;;;;;;4132095;28;20050;-69
2023/10/06 10:04:11;;;;;;;3.83;3.22;;;;;;;;;;4148188;28;20048;-69
2023/10/06 10:06:16;;;;;;;3.70;3.35;;;;;;;;;;4148393;28;20045;-70
2023/10/06 10:08:18;;;;;;;3.30;3.20;;;;;;;;;;4148382;28;20478;-69
2023/10/06 10:10:23;;;;;;;3.25;3.10;;;;;;;;;;4145303;28;20084;-69
2023/10/06 10:12:32;;;;;;;3.83;3.47;;;;;;;;;;4124470;28;20529;-70
2023/10/06 10:14:57;;;;;;;3.88;3.78;;;;;;;;;;4148413;28;20042;-70
2023/10/06 10:17:07;;;;;;;3.75;3.65;;;;;;;;;;4148549;28;20056;-69
2023/10/06 10:19:13;;;;;;;3.30;3.20;;;;;;;;;;4148245;28;20064;-69
2023/10/06 10:21:15;;;;;;;3.17;2.92;;;;;;;;;;4144545;28;20042;-69
2023/10/06 10:23:16;;;;;;;;;;;;;;;;;;4138421;28;20072;-69
2023/10/06 10:25:18;;;;;;;3.35;3.08;;;;;;;;;;4138723;28;19928;-69
2023/10/06 10:27:26;;;;;;;3.45;3.05;;;;;;;;;;4148103;28;20042;-69
2023/10/06 10:29:28;;;;;;;3.28;3.13;;;;;;;;;;4148136;28;20037;-69
2023/10/06 10:31:36;;;;;;;4.65;3.20;;;;;;;;;;4148180;28;20029;-69
2023/10/06 10:33:58;;;;;;;2.85;2.67;;;;;;;;;;4148179;28;20116;-69
2023/10/06 10:36:20;;;;;;;3.03;2.53;;;;;;;;;;4142076;28;20069;-69
2023/10/06 10:38:22;;;;;;;3.17;3.08;;;;;;;;;;4137780;28;20135;-69
2023/10/06 10:40:25;;;;;;;2.50;2.40;;;;;;;;;;4141489;28;20453;-69
2023/10/06 10:42:39;;;;;;;2.70;2.60;;;;;;;;;;4148914;28;20069;-69
2023/10/06 10:44:40;;;;;;;3.60;3.08;;;;;;;;;;4131928;28;20038;-68
2023/10/06 10:46:46;;;;;;;3.17;2.90;;;;;;;;;;4137129;28;20046;-69
2023/10/06 10:48:48;;;;;;;2.78;2.50;;;;;;;;;;4147606;28;20044;-69
2023/10/06 10:50:49;;;;;;;3.00;2.53;;;;;;;;;;4142012;28;20082;-69
2023/10/06 10:52:53;;;;;;;4.10;2.80;;;;;;;;;;4138712;28;20053;-68
2023/10/06 10:54:56;;;;;;;2.90;2.42;;;;;;;;;;4139270;28;20069;-69
2023/10/06 10:57:05;;;;;;;4.05;2.75;;;;;;;;;;4139856;28;20498;-69
2023/10/06 10:59:08;;;;;;;4.28;2.33;;;;;;;;;;4136709;28;20041;-69
2023/10/06 11:01:29;;;;;;;2.78;2.50;;;;;;;;;;4140473;28;20200;-68
2023/10/06 11:03:32;;;;;;;4.03;2.85;;;;;;;;;;4135954;28;20410;-68
2023/10/06 11:05:37;;;;;;;2.78;2.55;;;;;;;;;;4138141;28;20042;-68
2023/10/06 11:07:39;;;;;;;2.85;2.72;;;;;;;;;;4134014;28;20042;-68
2023/10/06 11:09:40;;;;;;;;;;;;;;;;;;4136620;28;20077;-67
2023/10/06 11:11:43;;;;;;;2.13;2.03;;;;;;;;;;4138638;28;19921;-68
2023/10/06 11:13:57;;;;;;;2.97;2.42;;;;;;;;;;4137411;28;20096;-68
2023/10/06 11:16:04;;;;;;;2.42;2.33;;;;;;;;;;4136910;28;20066;-68
2023/10/06 11:18:06;;;;;;;2.05;1.90;;;;;;;;;;4136210;28;20046;-68
2023/10/06 11:20:15;;;;;;;;;;;;;;;;;;4141625;28;20518;-68
2023/10/06 11:22:22;;;;;;;2.30;1.73;;;;;;;;;;4147505;28;19950;-68
2023/10/06 11:24:25;;;;;;;1.60;1.50;;;;;;;;;;4147609;28;20149;-69
2023/10/06 11:26:27;;;;;;;2.05;1.92;;;;;;;;;;4147290;28;20135;-69
2023/10/06 11:28:40;;;;;;;2.80;1.85;;;;;;;;;;4146321;28;20054;-69
2023/10/06 11:30:42;;;;;;;1.67;1.58;;;;;;;;;;4147293;28;20042;-69
2023/10/06 11:32:44;;;;;;;2.05;1.95;;;;;;;;;;4137157;28;20450;-69
2023/10/06 11:34:48;;;;;;;1.63;1.40;;;;;;;;;;4140528;28;20042;-69
2023/10/06 11:36:59;;;;;;;2.22;1.60;;;;;;;;;;4138512;28;20506;-68
2023/10/06 11:39:00;;;;;;;2.70;2.60;;;;;;;;;;4136651;28;20054;-69
2023/10/06 11:41:03;;;;;;;2.95;1.90;;;;;;;;;;4146361;28;20053;-70
2023/10/06 11:43:14;;;;;;;2.28;2.17;;;;;;;;;;4145892;28;20050;-68
2023/10/06 11:45:27;;;;;;;1.98;1.88;;;;;;;;;;4145418;28;20529;-68
2023/10/06 11:47:29;;;;;;;1.70;1.60;;;;;;;;;;4143240;28;20053;-68
2023/10/06 11:49:31;;;;;;;1.95;1.85;;;;;;;;;;4150539;28;20046;-68
2023/10/06 11:51:39;;;;;;;1.80;1.70;;;;;;;;;;4150457;28;20453;-68
2023/10/06 11:53:41;;;;;;;3.70;1.75;;;;;;;;;;4150828;28;20046;-68
2023/10/06 11:55:42;;;;;;;2.08;1.55;;;;;;;;;;4150559;28;20041;-68
2023/10/06 11:57:45;;;;;;;2.00;1.90;;;;;;;;;;4150405;28;20666;-68
2023/10/06 11:59:48;;;;;;;1.90;1.80;;;;;;;;;;4150428;28;20132;-68
2023/10/06 12:01:49;;;;;;;2.08;1.83;;;;;;;;;;4150043;28;20159;-68
2023/10/06 12:03:51;;;;;;;2.75;2.40;;;;;;;;;;4150515;28;20140;-68
2023/10/06 12:05:55;;;;;;;1.70;1.60;;;;;;;;;;4150378;28;20042;-67
2023/10/06 12:08:03;;;;;;;3.80;3.13;;;;;;;;;;4150248;28;20038;-68
2023/10/06 12:10:06;;;;;;;1.77;1.67;;;;;;;;;;4150332;28;20041;-68
2023/10/06 12:12:08;;;;;;;2.58;1.90;;;;;;;;;;4150289;28;20120;-67
2023/10/06 12:14:10;;;;;;;2.00;1.90;;;;;;;;;;4150247;28;20046;-68
2023/10/06 12:16:13;;;;;;;2.00;1.90;;;;;;;;;;4150436;28;20044;-67
2023/10/06 12:18:15;;;;;;;2.33;2.13;;;;;;;;;;4150303;28;20077;-67
2023/10/06 12:20:18;;;;;;;1.92;1.77;;;;;;;;;;4150060;28;20096;-67
2023/10/06 12:22:21;;;;;;;1.90;1.80;;;;;;;;;;4141263;28;20426;-67
2023/10/06 12:24:41;;;;;;;2.05;1.95;;;;;;;;;;4133993;28;20046;-67